Time;durP1;ratioP1;P1;durP2;ratioP2;P2;SDS_P1;SDS_P2;PMS_P1;PMS_P2;Temp;Humidity;BMP_temperature;BMP_pressure;BME280_temperature;BME280_humidity;BME280_pressure;Samples;Min_cycle;Max_cycle;Signal;HPM_P1;HPM_P2
2021/03/13 00:00:42;;;;;;;14.30;13.50;;;22.20;89.30;;;;;;5043367;28;20200;-83
2021/03/13 00:03:08;;;;;;;14.50;13.47;;;22.20;89.10;;;;;;5040459;28;20441;-83
2021/03/13 00:05:38;;;;;;;15.90;14.80;;;22.20;89.00;;;;;;5045684;28;20203;-83
2021/03/13 00:08:07;;;;;;;15.43;14.47;;;22.20;88.90;;;;;;5045474;28;20976;-83
2021/03/13 00:10:35;;;;;;;14.67;13.83;;;22.20;88.80;;;;;;5047783;28;20442;-83
2021/03/13 00:13:01;;;;;;;14.07;13.17;;;22.20;88.70;;;;;;5045801;28;20426;-83
2021/03/13 00:15:27;;;;;;;15.30;14.33;;;22.20;88.60;;;;;;5044463;28;20422;-83
2021/03/13 00:17:55;;;;;;;15.43;14.53;;;22.20;88.70;;;;;;5042154;28;20598;-82
2021/03/13 00:20:23;;;;;;;14.60;13.70;;;22.20;88.50;;;;;;5046228;28;20261;-82
2021/03/13 00:22:50;;;;;;;14.30;13.40;;;22.20;88.50;;;;;;5044323;28;21026;-82
2021/03/13 00:25:16;;;;;;;14.77;13.93;;;22.20;88.40;;;;;;5040769;28;21041;-82
2021/03/13 00:27:47;;;;;;;14.60;13.80;;;22.20;88.30;;;;;;5048269;28;20481;-82
2021/03/13 00:30:16;;;;;;;15.37;14.37;;;22.20;88.30;;;;;;5045204;28;20856;-83
2021/03/13 00:32:43;;;;;;;14.43;13.63;;;22.20;88.20;;;;;;5050645;28;20430;-82
2021/03/13 00:35:11;;;;;;;14.80;13.90;;;22.20;88.20;;;;;;5046011;28;20445;-82
2021/03/13 00:37:37;;;;;;;14.77;13.87;;;22.20;88.10;;;;;;5047871;28;20468;-81
2021/03/13 00:40:08;;;;;;;15.73;14.57;;;22.20;88.10;;;;;;5053074;28;20476;-84
2021/03/13 00:42:33;;;;;;;13.80;13.20;;;22.20;88.10;;;;;;5049011;28;20488;-84
2021/03/13 00:44:59;;;;;;;13.80;12.97;;;22.20;88.00;;;;;;5048340;28;20659;-83
2021/03/13 00:47:25;;;;;;;14.20;13.20;;;22.20;88.00;;;;;;5048037;28;20243;-84
2021/03/13 00:49:51;;;;;;;14.57;13.70;;;22.20;87.90;;;;;;5050442;28;20176;-84
2021/03/13 00:52:17;;;;;;;15.03;14.20;;;22.20;87.90;;;;;;5049438;28;20940;-84
2021/03/13 00:54:42;;;;;;;14.67;13.97;;;22.20;87.90;;;;;;5049780;28;20226;-83
2021/03/13 00:57:08;;;;;;;15.17;14.37;;;22.20;87.80;;;;;;5046932;28;20192;-84
2021/03/13 00:59:33;;;;;;;14.70;13.80;;;22.20;87.90;;;;;;5046310;28;20188;-83
2021/03/13 01:01:59;;;;;;;14.40;13.60;;;22.20;87.80;;;;;;5050455;28;20357;-84
2021/03/13 01:04:25;;;;;;;15.43;14.13;;;22.20;87.70;;;;;;5049290;28;20196;-83
2021/03/13 01:06:50;;;;;;;13.60;12.87;;;22.20;87.80;;;;;;5027881;28;20369;-84
2021/03/13 01:09:19;;;;;;;14.83;13.83;;;22.20;88.70;;;;;;5051852;28;20277;-84
2021/03/13 01:11:45;;;;;;;14.70;13.90;;;22.20;87.80;;;;;;5049848;28;20196;-84
2021/03/13 01:14:11;;;;;;;13.97;13.30;;;22.20;87.70;;;;;;5045820;28;20535;-84
2021/03/13 01:16:37;;;;;;;14.27;13.37;;;22.20;87.70;;;;;;5051057;28;20187;-83
2021/03/13 01:19:03;;;;;;;15.30;14.50;;;22.20;87.70;;;;;;5048198;28;20223;-84
2021/03/13 01:21:29;;;;;;;14.10;13.50;;;22.20;87.70;;;;;;5048936;28;20430;-84
2021/03/13 01:23:54;;;;;;;15.13;14.33;;;22.20;87.70;;;;;;5045337;28;20449;-83
2021/03/13 01:26:20;;;;;;;14.40;13.70;;;22.20;87.70;;;;;;5047966;28;20223;-84
2021/03/13 01:28:46;;;;;;;14.83;14.00;;;22.20;87.70;;;;;;5047047;28;20216;-84
2021/03/13 01:31:12;;;;;;;14.40;13.70;;;22.20;88.50;;;;;;5045813;28;20188;-84
2021/03/13 01:33:38;;;;;;;13.93;13.23;;;22.20;87.70;;;;;;5049763;28;20469;-84
2021/03/13 01:36:04;;;;;;;14.37;13.67;;;22.20;87.70;;;;;;5043421;28;20196;-84
2021/03/13 01:38:30;;;;;;;14.23;13.63;;;22.20;87.70;;;;;;5050144;28;20208;-84
2021/03/13 01:40:56;;;;;;;14.07;13.27;;;22.20;88.50;;;;;;5044684;28;20579;-84
2021/03/13 01:43:24;;;;;;;13.73;13.03;;;22.20;87.60;;;;;;5049564;28;20265;-83
2021/03/13 01:45:51;;;;;;;13.90;13.20;;;22.20;87.60;;;;;;5050460;28;20434;-84
2021/03/13 01:48:18;;;;;;;14.77;13.63;;;22.20;87.70;;;;;;5048872;28;20467;-83
2021/03/13 01:50:44;;;;;;;15.00;14.20;;;22.20;87.60;;;;;;5029838;28;20452;-84
2021/03/13 01:53:10;;;;;;;14.30;13.60;;;22.20;87.60;;;;;;5047761;28;20437;-84
2021/03/13 01:55:36;;;;;;;14.60;13.80;;;22.20;87.60;;;;;;5014478;28;20485;-84
2021/03/13 01:58:03;;;;;;;14.53;13.87;;;22.20;87.60;;;;;;5050617;28;20462;-83
2021/03/13 02:00:28;;;;;;;14.80;14.10;;;22.20;87.60;;;;;;5042606;28;20192;-83
2021/03/13 02:02:54;;;;;;;15.00;14.20;;;22.20;87.60;;;;;;5047113;28;20989;-84
2021/03/13 02:05:25;;;;;;;14.90;14.20;;;22.20;87.60;;;;;;5049035;28;20222;-83
2021/03/13 02:08:09;;;;;;;14.13;13.43;;;22.20;87.60;;;;;;5030781;28;20564;-84
2021/03/13 02:10:59;;;;;;;13.83;13.13;;;22.20;87.60;;;;;;5050666;28;20430;-84
2021/03/13 02:13:40;;;;;;;15.30;14.50;;;22.20;87.70;;;;;;5044999;28;20945;-84
2021/03/13 02:16:19;;;;;;;14.10;13.30;;;22.20;87.70;;;;;;5047722;28;20515;-83
2021/03/13 02:19:00;;;;;;;14.90;14.13;;;22.20;87.70;;;;;;5046551;28;20446;-84
2021/03/13 02:21:31;;;;;;;14.70;14.00;;;22.20;88.50;;;;;;5046960;28;21109;-84
2021/03/13 02:23:56;;;;;;;14.47;13.80;;;22.20;87.70;;;;;;5045580;28;20511;-84
2021/03/13 02:26:28;;;;;;;15.07;14.30;;;22.20;87.70;;;;;;5048952;28;20462;-83
2021/03/13 02:29:10;;;;;;;14.40;13.70;;;22.20;87.70;;;;;;5047275;28;20199;-84
2021/03/13 02:31:36;;;;;;;14.70;14.00;;;22.20;87.70;;;;;;5047034;28;20442;-84
2021/03/13 02:34:05;;;;;;;14.80;14.10;;;22.20;87.70;;;;;;5047420;28;20480;-83
2021/03/13 02:36:32;;;;;;;14.77;14.07;;;22.20;87.90;;;;;;5046840;28;20442;-83
2021/03/13 02:39:06;;;;;;;13.97;13.37;;;22.20;87.70;;;;;;5046680;28;20504;-84
2021/03/13 02:41:39;;;;;;;14.97;14.30;;;22.20;87.70;;;;;;5059693;28;20451;-84
2021/03/13 02:44:07;;;;;;;14.30;13.63;;;22.20;87.70;;;;;;5047258;28;20431;-84
2021/03/13 02:46:41;;;;;;;14.87;14.17;;;22.20;87.70;;;;;;5048928;28;21247;-83
2021/03/13 02:49:07;;;;;;;14.30;13.70;;;22.20;87.70;;;;;;5049435;28;20611;-84
2021/03/13 02:51:35;;;;;;;14.40;13.80;;;22.20;87.70;;;;;;5041765;28;20458;-84
2021/03/13 02:54:01;;;;;;;14.13;13.43;;;22.20;87.70;;;;;;5029158;28;20855;-84
2021/03/13 02:56:27;;;;;;;14.20;13.40;;;22.20;87.70;;;;;;5048981;28;20464;-83
2021/03/13 02:58:55;;;;;;;14.30;13.60;;;22.20;87.70;;;;;;5041589;28;20591;-83
2021/03/13 03:01:25;;;;;;;14.83;13.93;;;22.20;87.70;;;;;;5047860;28;20887;-83
2021/03/13 03:03:52;;;;;;;14.50;13.90;;;22.20;87.70;;;;;;5043110;28;20481;-84
2021/03/13 03:06:20;;;;;;;14.80;14.10;;;22.20;87.70;;;;;;5044399;28;20982;-83
2021/03/13 03:08:46;;;;;;;14.30;13.60;;;22.20;87.70;;;;;;5049564;28;20537;-83
2021/03/13 03:11:20;;;;;;;13.70;13.10;;;22.20;87.80;;;;;;5045827;28;21110;-84
2021/03/13 03:13:47;;;;;;;13.97;13.37;;;22.20;87.80;;;;;;5045634;28;20438;-84
2021/03/13 03:16:13;;;;;;;15.00;14.30;;;22.20;87.80;;;;;;5045894;28;20501;-83
2021/03/13 03:18:41;;;;;;;15.07;14.43;;;22.20;87.80;;;;;;5046597;28;20492;-84
2021/03/13 03:21:08;;;;;;;14.23;13.53;;;22.20;87.80;;;;;;5047370;28;21331;-84
2021/03/13 03:23:37;;;;;;;14.30;13.70;;;22.20;87.90;;;;;;5044921;28;20454;-84
2021/03/13 03:26:04;;;;;;;14.60;13.90;;;22.20;87.80;;;;;;5049013;28;20442;-83
2021/03/13 03:28:29;;;;;;;14.13;13.47;;;22.20;87.90;;;;;;5043636;28;20502;-84
2021/03/13 03:30:55;;;;;;;14.10;13.50;;;22.20;87.90;;;;;;5045574;28;20979;-83
2021/03/13 03:33:23;;;;;;;14.73;14.03;;;22.20;87.90;;;;;;5043495;28;20715;-83
2021/03/13 03:35:49;;;;;;;14.60;13.47;;;22.20;87.90;;;;;;5040716;28;20230;-83
2021/03/13 03:38:16;;;;;;;13.67;13.07;;;22.20;87.90;;;;;;5047398;28;21443;-84
2021/03/13 03:40:43;;;;;;;14.60;13.93;;;22.20;87.90;;;;;;5042380;28;20477;-83
2021/03/13 03:43:12;;;;;;;14.30;13.50;;;22.20;87.90;;;;;;5045101;28;20453;-83
2021/03/13 03:45:40;;;;;;;14.87;14.07;;;22.20;87.90;;;;;;5042789;28;20423;-83
2021/03/13 03:48:10;;;;;;;14.97;14.27;;;22.20;87.90;;;;;;5045519;28;20530;-83
2021/03/13 03:50:37;;;;;;;14.87;14.27;;;22.20;87.90;;;;;;5045276;28;20499;-84
2021/03/13 03:53:07;;;;;;;15.07;14.37;;;22.20;87.90;;;;;;5028847;28;20434;-83
2021/03/13 03:55:37;;;;;;;14.67;13.97;;;22.20;87.90;;;;;;5044018;28;20427;-83
2021/03/13 03:58:08;;;;;;;14.67;13.97;;;22.20;87.90;;;;;;5046476;28;20461;-83
2021/03/13 04:00:35;;;;;;;14.03;13.43;;;22.20;87.90;;;;;;5028417;28;20428;-83
2021/03/13 04:03:03;;;;;;;13.93;13.33;;;22.20;87.90;;;;;;5045690;28;20438;-83
2021/03/13 04:05:29;;;;;;;14.60;14.00;;;22.20;88.00;;;;;;5041761;28;20438;-83
2021/03/13 04:07:55;;;;;;;14.70;14.10;;;22.20;88.00;;;;;;5044828;28;20500;-84
2021/03/13 04:10:26;;;;;;;13.73;13.13;;;22.20;88.00;;;;;;5045081;28;20177;-84
2021/03/13 04:12:53;;;;;;;14.43;13.83;;;22.20;88.00;;;;;;5046186;28;20427;-84
2021/03/13 04:15:20;;;;;;;14.70;14.00;;;22.20;88.00;;;;;;5044605;28;20461;-84
2021/03/13 04:17:47;;;;;;;14.73;14.13;;;22.20;88.00;;;;;;5043104;28;20972;-84
2021/03/13 04:20:13;;;;;;;15.23;14.53;;;22.20;88.00;;;;;;5041175;28;20940;-84
2021/03/13 04:22:40;;;;;;;15.67;14.97;;;22.20;88.00;;;;;;5043586;28;21191;-83
2021/03/13 04:25:07;;;;;;;14.33;13.63;;;22.20;88.00;;;;;;5026685;28;20462;-84
2021/03/13 04:27:34;;;;;;;13.93;13.23;;;22.20;88.10;;;;;;5046847;28;20520;-83
2021/03/13 04:30:01;;;;;;;13.27;12.67;;;22.20;88.20;;;;;;5044655;28;20457;-84
2021/03/13 04:32:27;;;;;;;12.60;12.00;;;22.20;88.10;;;;;;5025042;28;20438;-84
2021/03/13 04:34:55;;;;;;;13.30;12.77;;;22.20;88.20;;;;;;5040040;28;21175;-84
2021/03/13 04:37:22;;;;;;;13.43;12.83;;;22.20;88.20;;;;;;5041680;28;20458;-84
2021/03/13 04:39:49;;;;;;;14.00;13.37;;;22.20;88.20;;;;;;5046315;28;20462;-83
2021/03/13 04:42:15;;;;;;;14.37;13.63;;;22.20;88.30;;;;;;5045630;28;20555;-83
2021/03/13 04:44:41;;;;;;;14.10;13.47;;;22.20;88.30;;;;;;5046090;28;20972;-84
2021/03/13 04:47:09;;;;;;;13.87;13.17;;;22.20;88.30;;;;;;5044022;28;20211;-83
2021/03/13 04:49:35;;;;;;;14.33;13.73;;;22.20;88.30;;;;;;5042825;28;21043;-84
2021/03/13 04:52:01;;;;;;;14.07;13.37;;;22.20;88.30;;;;;;5043017;28;20487;-84
2021/03/13 04:54:28;;;;;;;14.40;13.80;;;22.20;88.30;;;;;;5041301;28;20184;-83
2021/03/13 04:56:54;;;;;;;14.30;13.70;;;22.20;88.30;;;;;;5042954;28;20476;-83
2021/03/13 04:59:20;;;;;;;14.10;13.50;;;22.20;88.30;;;;;;5041963;28;20463;-84
2021/03/13 05:01:46;;;;;;;14.50;13.90;;;22.20;88.30;;;;;;5043113;28;20920;-83
2021/03/13 05:04:12;;;;;;;14.50;13.90;;;22.20;88.20;;;;;;5039988;28;20434;-84
2021/03/13 05:06:37;;;;;;;13.67;13.07;;;22.20;88.20;;;;;;5033550;28;20466;-84
2021/03/13 05:09:04;;;;;;;12.83;12.13;;;22.20;88.20;;;;;;5024794;28;20556;-84
2021/03/13 05:11:30;;;;;;;13.53;12.93;;;22.20;88.30;;;;;;5025394;28;20195;-84
2021/03/13 05:13:56;;;;;;;13.27;12.73;;;22.20;88.30;;;;;;5041209;28;20422;-83
2021/03/13 05:16:23;;;;;;;13.43;12.83;;;22.20;88.30;;;;;;5045137;28;20431;-84
2021/03/13 05:18:48;;;;;;;13.30;12.80;;;22.20;88.30;;;;;;5026986;28;20457;-83
2021/03/13 05:21:15;;;;;;;14.40;13.70;;;22.20;89.10;;;;;;5045808;28;20437;-83
2021/03/13 05:23:41;;;;;;;14.10;13.50;;;22.20;88.20;;;;;;5024394;28;20658;-84
2021/03/13 05:26:07;;;;;;;13.10;12.60;;;22.20;88.20;;;;;;5044603;28;20516;-83
2021/03/13 05:28:33;;;;;;;12.90;12.40;;;22.20;88.20;;;;;;5045065;28;20489;-83
2021/03/13 05:30:59;;;;;;;13.67;13.07;;;22.20;88.10;;;;;;5044178;28;20484;-83
2021/03/13 05:33:25;;;;;;;14.30;13.67;;;22.20;88.10;;;;;;5047486;28;20426;-83
2021/03/13 05:35:51;;;;;;;13.17;12.67;;;22.20;88.10;;;;;;5045410;28;20210;-85
2021/03/13 05:38:17;;;;;;;15.60;14.87;;;22.20;88.10;;;;;;5050897;28;20443;-84
2021/03/13 05:40:42;;;;;;;13.30;12.80;;;22.20;88.10;;;;;;5043634;28;20187;-86
2021/03/13 05:43:12;;;;;;;12.47;11.97;;;22.20;88.10;;;;;;5045047;28;20295;-83
2021/03/13 05:45:39;;;;;;;14.37;13.77;;;22.20;88.10;;;;;;5045632;28;20195;-86
2021/03/13 05:48:07;;;;;;;13.30;12.77;;;22.20;88.10;;;;;;5025195;28;20532;-85
2021/03/13 05:50:37;;;;;;;13.03;12.53;;;22.20;88.10;;;;;;5059164;28;20430;-85
2021/03/13 05:53:04;;;;;;;14.07;13.47;;;22.20;88.10;;;;;;5043127;28;20492;-83
2021/03/13 05:55:30;;;;;;;14.43;13.83;;;22.20;88.10;;;;;;5044965;28;20429;-86
2021/03/13 05:57:56;;;;;;;14.20;13.57;;;22.20;88.10;;;;;;5042211;28;20449;-86
2021/03/13 06:00:23;;;;;;;13.60;13.00;;;22.20;88.10;;;;;;5043304;28;20446;-86
2021/03/13 06:02:50;;;;;;;14.50;13.90;;;22.20;88.10;;;;;;5039800;28;20188;-86
2021/03/13 06:05:16;;;;;;;13.73;13.23;;;22.20;88.10;;;;;;5025331;28;20492;-83
2021/03/13 06:07:43;;;;;;;13.13;12.63;;;22.20;88.10;;;;;;5041181;28;20538;-85
2021/03/13 06:10:12;;;;;;;14.13;13.53;;;22.20;88.10;;;;;;5044473;28;20442;-85
2021/03/13 06:12:38;;;;;;;14.20;13.60;;;22.20;88.00;;;;;;5041490;28;20484;-85
2021/03/13 06:15:05;;;;;;;13.90;13.30;;;22.20;88.00;;;;;;5040197;28;20655;-86
2021/03/13 06:17:54;;;;;;;13.03;12.43;;;22.20;88.00;;;;;;5039527;28;20207;-85
2021/03/13 06:20:21;;;;;;;13.27;12.70;;;22.20;88.00;;;;;;5043783;28;20564;-85
2021/03/13 06:22:48;;;;;;;12.93;12.43;;;22.20;88.00;;;;;;5041786;28;20454;-85
2021/03/13 06:25:23;;;;;;;14.13;13.57;;;22.20;88.10;;;;;;5041218;28;20450;-85
2021/03/13 06:28:03;;;;;;;14.10;13.50;;;22.20;88.00;;;;;;5040600;28;20481;-85
2021/03/13 06:30:32;;;;;;;13.40;12.70;;;22.20;88.00;;;;;;5043069;28;20943;-85
2021/03/13 06:32:58;;;;;;;14.00;13.40;;;22.20;87.90;;;;;;5059984;28;20817;-86
2021/03/13 06:35:29;;;;;;;13.57;12.90;;;22.20;87.90;;;;;;5040497;28;20431;-84
2021/03/13 06:37:57;;;;;;;13.97;13.37;;;22.20;87.90;;;;;;5043646;28;21005;-84
2021/03/13 06:40:39;;;;;;;13.57;13.07;;;22.20;87.90;;;;;;5044265;28;20432;-85
2021/03/13 06:43:22;;;;;;;14.90;14.00;;;22.20;87.90;;;;;;5041776;28;20449;-85
2021/03/13 06:46:06;;;;;;;14.43;13.83;;;22.20;87.90;;;;;;5039849;28;20492;-85
2021/03/13 06:48:40;;;;;;;14.70;14.10;;;22.20;87.80;;;;;;5041619;28;21129;-84
2021/03/13 06:51:24;;;;;;;13.87;13.23;;;22.20;87.80;;;;;;5043086;28;20477;-85
2021/03/13 06:54:05;;;;;;;13.87;13.27;;;22.20;87.80;;;;;;5037864;28;20519;-85
2021/03/13 06:56:57;;;;;;;12.67;12.00;;;22.20;87.80;;;;;;5042811;28;20532;-85
2021/03/13 06:59:49;;;;;;;12.60;12.10;;;22.20;87.80;;;;;;5034360;28;20536;-85
2021/03/13 07:02:21;;;;;;;13.73;13.03;;;22.20;87.80;;;;;;5043340;28;20447;-85
2021/03/13 07:04:46;;;;;;;13.50;13.00;;;22.20;87.70;;;;;;5045066;28;21342;-85
2021/03/13 07:07:26;;;;;;;13.40;12.87;;;22.20;87.70;;;;;;5035825;28;20465;-85
2021/03/13 07:10:01;;;;;;;14.20;13.60;;;22.20;87.70;;;;;;5042912;28;20657;-86
2021/03/13 07:12:31;;;;;;;12.97;12.43;;;22.30;87.80;;;;;;5040260;28;20903;-85
2021/03/13 07:15:18;;;;;;;14.27;13.67;;;22.20;87.70;;;;;;5039205;28;20879;-85
2021/03/13 07:17:55;;;;;;;14.80;14.10;;;22.20;87.70;;;;;;5042579;28;20465;-85
2021/03/13 07:20:32;;;;;;;13.63;13.03;;;22.30;87.70;;;;;;5040495;28;20418;-85
2021/03/13 07:23:04;;;;;;;13.10;12.60;;;22.30;87.80;;;;;;5043616;28;20467;-84
2021/03/13 07:25:30;;;;;;;14.80;14.20;;;22.30;87.70;;;;;;5040080;28;20799;-86
2021/03/13 07:28:07;;;;;;;13.93;13.37;;;22.30;87.70;;;;;;5041712;28;20556;-85
2021/03/13 07:30:36;;;;;;;15.03;14.33;;;22.30;87.70;;;;;;5043706;28;21097;-85
2021/03/13 07:33:08;;;;;;;13.00;12.27;;;22.30;87.70;;;;;;5041108;28;20535;-85
2021/03/13 07:35:37;;;;;;;14.20;13.60;;;22.30;87.70;;;;;;5043640;28;20493;-85
2021/03/13 07:38:05;;;;;;;14.77;13.90;;;22.30;87.70;;;;;;5041902;28;20466;-86
2021/03/13 07:40:34;;;;;;;13.83;13.23;;;22.30;87.60;;;;;;5039302;28;20453;-85
2021/03/13 07:43:02;;;;;;;13.93;13.33;;;22.30;87.70;;;;;;5043919;28;20446;-85
2021/03/13 07:45:32;;;;;;;13.67;13.07;;;22.30;87.60;;;;;;5041238;28;20477;-85
2021/03/13 07:47:59;;;;;;;13.77;13.17;;;22.30;87.60;;;;;;5042729;28;20976;-85
2021/03/13 07:50:25;;;;;;;13.10;12.50;;;22.30;87.50;;;;;;5039570;28;20478;-85
2021/03/13 07:52:51;;;;;;;13.17;12.63;;;22.30;87.60;;;;;;5039497;28;20526;-85
2021/03/13 07:55:19;;;;;;;14.43;13.83;;;22.30;87.60;;;;;;5041109;28;20477;-85
2021/03/13 07:57:47;;;;;;;14.93;14.27;;;22.30;87.60;;;;;;5038858;28;21015;-85
2021/03/13 08:00:13;;;;;;;13.70;13.10;;;22.30;87.60;;;;;;5042842;28;20489;-85
2021/03/13 08:02:46;;;;;;;13.37;12.50;;;22.30;87.60;;;;;;5042616;28;21025;-85
2021/03/13 08:05:16;;;;;;;13.20;12.70;;;22.30;87.60;;;;;;5038711;28;20766;-86
2021/03/13 08:08:06;;;;;;;13.27;12.67;;;22.30;87.60;;;;;;5042619;28;20538;-85
2021/03/13 08:10:53;;;;;;;13.87;13.17;;;22.30;87.60;;;;;;5040076;28;20435;-85
2021/03/13 08:13:28;;;;;;;12.97;12.47;;;22.30;87.60;;;;;;5037652;28;20528;-86
2021/03/13 08:16:08;;;;;;;13.23;12.73;;;22.30;87.80;;;;;;5041649;28;20441;-85
2021/03/13 08:18:50;;;;;;;12.40;11.80;;;22.30;87.70;;;;;;5038231;28;20535;-85
2021/03/13 08:21:19;;;;;;;14.20;13.53;;;22.30;87.70;;;;;;5042199;28;20434;-85
2021/03/13 08:23:52;;;;;;;12.40;11.90;;;22.30;87.70;;;;;;5040086;28;20438;-84
2021/03/13 08:26:20;;;;;;;13.27;12.77;;;22.30;87.70;;;;;;5038226;28;20481;-85
2021/03/13 08:28:46;;;;;;;14.40;13.80;;;22.30;87.70;;;;;;5042533;28;20466;-85
2021/03/13 08:31:24;;;;;;;13.50;12.87;;;22.30;87.70;;;;;;5042672;28;20499;-85
2021/03/13 08:33:50;;;;;;;14.90;14.23;;;22.30;87.70;;;;;;5038558;28;20264;-85
2021/03/13 08:36:47;;;;;;;13.53;12.93;;;22.30;87.70;;;;;;5042526;28;20446;-85
2021/03/13 08:39:25;;;;;;;13.43;12.83;;;22.30;87.70;;;;;;5038657;28;20497;-85
2021/03/13 08:41:53;;;;;;;13.67;13.07;;;22.30;87.60;;;;;;5038967;28;20533;-85
2021/03/13 08:44:24;;;;;;;14.70;14.10;;;22.30;87.60;;;;;;5041957;28;20529;-85
2021/03/13 08:46:54;;;;;;;14.50;13.90;;;22.30;87.60;;;;;;5038104;28;20479;-86
2021/03/13 08:49:26;;;;;;;12.83;12.33;;;22.30;87.60;;;;;;5042166;28;20456;-85
2021/03/13 08:52:10;;;;;;;14.20;13.60;;;22.30;87.60;;;;;;5045062;28;20438;-85
2021/03/13 08:54:39;;;;;;;12.63;12.13;;;22.40;87.70;;;;;;5040895;28;20438;-85
2021/03/13 08:57:16;;;;;;;12.60;12.10;;;22.40;87.70;;;;;;5046944;28;20434;-85
2021/03/13 08:59:44;;;;;;;13.00;12.40;;;22.40;87.70;;;;;;5036962;28;20448;-85
2021/03/13 09:02:16;;;;;;;14.50;13.80;;;22.40;87.60;;;;;;5042550;28;20454;-85
2021/03/13 09:04:45;;;;;;;13.37;12.77;;;22.40;87.70;;;;;;5044522;28;20468;-85
2021/03/13 09:07:11;;;;;;;12.23;11.73;;;22.40;87.70;;;;;;5041649;28;20503;-85
2021/03/13 09:09:39;;;;;;;13.77;13.17;;;22.40;87.70;;;;;;5045212;28;20920;-85
2021/03/13 09:12:13;;;;;;;14.53;13.70;;;22.40;87.70;;;;;;5038906;28;20434;-86
2021/03/13 09:14:42;;;;;;;13.57;12.97;;;22.40;87.80;;;;;;5033184;28;20442;-85
2021/03/13 09:17:12;;;;;;;13.23;12.63;;;22.40;87.80;;;;;;5038030;28;21050;-85
2021/03/13 09:19:38;;;;;;;13.30;12.70;;;22.40;87.70;;;;;;5045844;28;20434;-86
2021/03/13 09:22:08;;;;;;;13.90;13.20;;;22.40;87.70;;;;;;5045957;28;20571;-86
2021/03/13 09:24:34;;;;;;;13.70;13.17;;;22.40;87.70;;;;;;5039896;28;20443;-85
2021/03/13 09:27:04;;;;;;;12.30;11.70;;;22.40;87.70;;;;;;5044071;28;20482;-87
2021/03/13 09:29:35;;;;;;;13.57;12.87;;;22.40;87.60;;;;;;5039680;28;20508;-86
2021/03/13 09:32:15;;;;;;;13.43;12.53;;;22.40;87.60;;;;;;5042904;28;20435;-88
2021/03/13 09:34:44;;;;;;;12.60;12.10;;;22.40;88.00;;;;;;5020688;28;21099;-84
2021/03/13 09:37:09;;;;;;;14.10;12.90;;;22.40;88.60;;;;;;5035981;28;20435;-85
2021/03/13 09:39:35;;;;;;;12.23;11.53;;;22.40;88.90;;;;;;5046924;28;20514;-84
2021/03/13 09:42:18;;;;;;;12.73;12.23;;;22.50;89.20;;;;;;5060237;28;20248;-85
2021/03/13 09:44:52;;;;;;;14.00;13.40;;;22.50;89.40;;;;;;5042478;28;20195;-85
2021/03/13 09:47:33;;;;;;;13.17;12.47;;;22.50;89.50;;;;;;5037698;28;21147;-87
2021/03/13 09:50:01;;;;;;;14.50;13.80;;;22.40;89.50;;;;;;5042030;28;21133;-84
2021/03/13 09:52:35;;;;;;;13.67;13.07;;;22.50;90.00;;;;;;5039212;28;20435;-84
2021/03/13 09:55:12;;;;;;;13.77;12.97;;;22.50;90.00;;;;;;5044111;28;20474;-86
2021/03/13 09:57:42;;;;;;;13.53;12.53;;;22.50;90.00;;;;;;5043562;28;20450;-85
2021/03/13 10:00:16;;;;;;;14.00;13.30;;;22.50;90.00;;;;;;5046961;28;20462;-85
2021/03/13 10:02:41;;;;;;;13.73;13.00;;;22.50;90.10;;;;;;5048932;28;20459;-87
2021/03/13 10:05:10;;;;;;;14.13;13.33;;;22.50;90.10;;;;;;5045573;28;20539;-84
2021/03/13 10:07:44;;;;;;;13.23;12.63;;;22.50;90.50;;;;;;5047879;28;20219;-85
2021/03/13 10:10:13;;;;;;;14.40;13.70;;;22.50;90.10;;;;;;5044584;28;20419;-86
2021/03/13 10:12:50;;;;;;;13.07;12.20;;;22.50;90.20;;;;;;5046306;28;20810;-87
2021/03/13 10:15:24;;;;;;;13.83;12.50;;;22.50;90.30;;;;;;5048132;28;20429;-85
2021/03/13 10:18:05;;;;;;;15.00;14.30;;;22.50;90.80;;;;;;5046539;28;20468;-86
2021/03/13 10:20:47;;;;;;;13.30;12.60;;;22.50;91.20;;;;;;5044146;28;20474;-87
2021/03/13 10:23:15;;;;;;;15.20;14.37;;;22.60;91.50;;;;;;5042438;28;20418;-85
2021/03/13 10:25:43;;;;;;;13.37;12.37;;;22.60;91.40;;;;;;5040871;28;20481;-86
2021/03/13 10:28:15;;;;;;;14.63;13.90;;;22.60;91.30;;;;;;5039099;28;20586;-86
2021/03/13 10:30:43;;;;;;;14.30;13.60;;;22.60;91.40;;;;;;5037791;28;20454;-86
2021/03/13 10:33:10;;;;;;;14.00;13.10;;;22.60;91.30;;;;;;5019683;28;20858;-85
2021/03/13 10:35:36;;;;;;;13.63;12.83;;;22.60;91.40;;;;;;5040748;28;20861;-86
2021/03/13 10:38:09;;;;;;;14.43;13.20;;;22.60;91.40;;;;;;5042075;28;20461;-85
2021/03/13 10:40:38;;;;;;;12.93;12.33;;;22.60;91.40;;;;;;5041914;28;20940;-86
2021/03/13 10:43:10;;;;;;;14.07;13.37;;;22.60;91.40;;;;;;5039903;28;20480;-86
2021/03/13 10:45:36;;;;;;;18.13;12.43;;;22.60;91.40;;;;;;5036406;28;20423;-85
2021/03/13 10:48:06;;;;;;;13.70;12.90;;;22.60;91.40;;;;;;5040569;28;21009;-84
2021/03/13 10:50:34;;;;;;;12.83;12.23;;;22.60;91.30;;;;;;5041299;28;20499;-84
2021/03/13 10:53:32;;;;;;;12.90;12.20;;;22.60;91.40;;;;;;5037862;28;20968;-84
2021/03/13 10:56:12;;;;;;;13.57;12.60;;;22.60;91.30;;;;;;5041074;28;21018;-86
2021/03/13 10:58:45;;;;;;;11.90;11.40;;;22.60;91.30;;;;;;5039878;28;20465;-86
2021/03/13 11:01:11;;;;;;;12.93;12.33;;;22.60;91.30;;;;;;5043141;28;20434;-85
2021/03/13 11:03:37;;;;;;;14.50;13.70;;;22.60;91.30;;;;;;5040988;28;20435;-85
2021/03/13 11:06:03;;;;;;;13.60;13.00;;;22.60;91.30;;;;;;5040574;28;20509;-86
2021/03/13 11:08:29;;;;;;;13.87;13.17;;;22.60;91.30;;;;;;5035948;28;20199;-85
2021/03/13 11:10:58;;;;;;;13.77;13.00;;;22.60;91.40;;;;;;5043614;28;20469;-85
2021/03/13 11:13:25;;;;;;;13.43;12.83;;;22.60;91.30;;;;;;5022288;28;20211;-85
2021/03/13 11:15:51;;;;;;;11.80;11.20;;;22.60;91.30;;;;;;5041857;28;20445;-84
2021/03/13 11:18:18;;;;;;;14.40;13.60;;;22.60;91.30;;;;;;5043579;28;20460;-85
2021/03/13 11:20:44;;;;;;;12.77;12.17;;;22.60;91.30;;;;;;5026365;28;20438;-86
2021/03/13 11:23:11;;;;;;;12.23;11.63;;;22.60;91.30;;;;;;5044203;28;20897;-85
2021/03/13 11:25:37;;;;;;;12.93;12.30;;;22.60;91.50;;;;;;5026235;28;21020;-86
2021/03/13 11:28:03;;;;;;;16.43;13.00;;;22.60;91.60;;;;;;5026658;28;20479;-86
2021/03/13 11:30:31;;;;;;;13.77;13.07;;;22.60;91.60;;;;;;5042682;28;20418;-85
2021/03/13 11:32:56;;;;;;;14.40;13.43;;;22.70;91.70;;;;;;5028224;28;20464;-85
2021/03/13 11:35:23;;;;;;;14.27;13.57;;;22.70;91.80;;;;;;5041443;28;20422;-85
2021/03/13 11:37:49;;;;;;;14.37;13.57;;;22.70;92.00;;;;;;5042913;28;20192;-85
2021/03/13 11:40:16;;;;;;;14.37;13.37;;;22.70;92.20;;;;;;5042199;28;20442;-85
2021/03/13 11:42:42;;;;;;;15.20;13.97;;;22.70;92.40;;;;;;5040132;28;20438;-86
2021/03/13 11:45:10;;;;;;;13.87;12.97;;;22.70;92.80;;;;;;5021578;28;20435;-85
2021/03/13 11:47:37;;;;;;;15.63;14.03;;;22.70;92.80;;;;;;5025160;28;20266;-85
2021/03/13 11:50:08;;;;;;;12.90;12.20;;;22.70;92.90;;;;;;5041408;28;20442;-84
2021/03/13 11:53:04;;;;;;;15.40;14.20;;;21.80;86.30;;;;;;5039752;28;20427;-84
2021/03/13 11:55:29;;;;;;;4.43;2.03;;;21.90;86.80;;;;;;5042174;28;20430;-84
2021/03/13 11:58:35;;;;;;;6.87;6.47;;;22.00;87.00;;;;;;5045391;28;20448;-92
